sensor_id;sensor_type;location;lat;lon;timestamp;P1;durP1;ratioP1;P2;durP2;ratioP2
48367;SDS011;34173;47.446;18.912;2023-05-07T00:00:13;14.27;;;10.75;;
48367;SDS011;34173;47.446;18.912;2023-05-07T00:02:43;14.93;;;11.23;;
48367;SDS011;34173;47.446;18.912;2023-05-07T00:05:12;15.20;;;11.00;;
48367;SDS011;34173;47.446;18.912;2023-05-07T00:07:41;14.90;;;10.85;;
48367;SDS011;34173;47.446;18.912;2023-05-07T00:10:09;16.55;;;11.02;;
48367;SDS011;34173;47.446;18.912;2023-05-07T00:12:38;15.85;;;10.55;;
48367;SDS011;34173;47.446;18.912;2023-05-07T00:15:06;13.25;;;9.88;;
48367;SDS011;34173;47.446;18.912;2023-05-07T00:17:34;13.48;;;10.10;;
48367;SDS011;34173;47.446;18.912;2023-05-07T00:20:02;14.73;;;10.15;;
48367;SDS011;34173;47.446;18.912;2023-05-07T00:22:32;12.40;;;9.60;;
48367;SDS011;34173;47.446;18.912;2023-05-07T00:24:59;11.88;;;9.23;;
48367;SDS011;34173;47.446;18.912;2023-05-07T00:27:27;12.52;;;8.93;;
48367;SDS011;34173;47.446;18.912;2023-05-07T00:29:54;13.07;;;9.43;;
48367;SDS011;34173;47.446;18.912;2023-05-07T00:32:22;12.13;;;8.60;;
48367;SDS011;34173;47.446;18.912;2023-05-07T00:34:49;10.88;;;8.63;;
48367;SDS011;34173;47.446;18.912;2023-05-07T00:37:18;11.35;;;8.48;;
48367;SDS011;34173;47.446;18.912;2023-05-07T00:39:45;12.80;;;9.07;;
48367;SDS011;34173;47.446;18.912;2023-05-07T00:42:13;11.57;;;8.48;;
48367;SDS011;34173;47.446;18.912;2023-05-07T00:44:42;12.40;;;8.80;;
48367;SDS011;34173;47.446;18.912;2023-05-07T00:47:09;12.43;;;8.90;;
48367;SDS011;34173;47.446;18.912;2023-05-07T00:49:46;12.27;;;8.05;;
48367;SDS011;34173;47.446;18.912;2023-05-07T00:52:15;12.00;;;8.90;;
48367;SDS011;34173;47.446;18.912;2023-05-07T00:54:43;11.55;;;8.80;;
48367;SDS011;34173;47.446;18.912;2023-05-07T00:57:11;11.13;;;8.43;;
48367;SDS011;34173;47.446;18.912;2023-05-07T00:59:40;12.00;;;9.02;;
48367;SDS011;34173;47.446;18.912;2023-05-07T01:02:07;11.77;;;9.50;;
48367;SDS011;34173;47.446;18.912;2023-05-07T01:04:35;13.62;;;9.38;;
48367;SDS011;34173;47.446;18.912;2023-05-07T01:07:04;12.93;;;9.45;;
48367;SDS011;34173;47.446;18.912;2023-05-07T01:09:32;12.68;;;10.43;;
48367;SDS011;34173;47.446;18.912;2023-05-07T01:12:03;13.23;;;9.95;;
48367;SDS011;34173;47.446;18.912;2023-05-07T01:14:31;12.48;;;9.88;;
48367;SDS011;34173;47.446;18.912;2023-05-07T01:17:00;12.88;;;10.00;;
48367;SDS011;34173;47.446;18.912;2023-05-07T01:19:28;12.52;;;9.38;;
48367;SDS011;34173;47.446;18.912;2023-05-07T01:22:01;14.48;;;10.10;;
48367;SDS011;34173;47.446;18.912;2023-05-07T01:24:32;13.15;;;9.38;;
48367;SDS011;34173;47.446;18.912;2023-05-07T01:27:00;14.52;;;10.02;;
48367;SDS011;34173;47.446;18.912;2023-05-07T01:29:29;11.40;;;8.45;;
48367;SDS011;34173;47.446;18.912;2023-05-07T01:31:58;10.23;;;7.50;;
48367;SDS011;34173;47.446;18.912;2023-05-07T01:34:28;11.73;;;7.65;;
48367;SDS011;34173;47.446;18.912;2023-05-07T01:36:57;10.65;;;8.43;;
48367;SDS011;34173;47.446;18.912;2023-05-07T01:39:28;10.85;;;7.90;;
48367;SDS011;34173;47.446;18.912;2023-05-07T01:41:56;11.00;;;7.80;;
48367;SDS011;34173;47.446;18.912;2023-05-07T01:44:24;9.27;;;7.60;;
48367;SDS011;34173;47.446;18.912;2023-05-07T01:46:52;10.90;;;7.70;;
48367;SDS011;34173;47.446;18.912;2023-05-07T01:49:20;9.63;;;7.43;;
48367;SDS011;34173;47.446;18.912;2023-05-07T01:51:47;10.30;;;7.50;;
48367;SDS011;34173;47.446;18.912;2023-05-07T01:54:15;11.95;;;7.72;;
48367;SDS011;34173;47.446;18.912;2023-05-07T01:56:44;9.38;;;7.30;;
48367;SDS011;34173;47.446;18.912;2023-05-07T01:59:11;10.85;;;7.20;;
48367;SDS011;34173;47.446;18.912;2023-05-07T02:01:40;8.65;;;6.72;;
48367;SDS011;34173;47.446;18.912;2023-05-07T02:04:10;10.25;;;7.43;;
48367;SDS011;34173;47.446;18.912;2023-05-07T02:06:37;10.47;;;6.83;;
48367;SDS011;34173;47.446;18.912;2023-05-07T02:09:05;10.05;;;6.97;;
48367;SDS011;34173;47.446;18.912;2023-05-07T02:11:33;9.23;;;6.18;;
48367;SDS011;34173;47.446;18.912;2023-05-07T02:14:00;8.88;;;6.10;;
48367;SDS011;34173;47.446;18.912;2023-05-07T02:16:27;9.27;;;6.95;;
48367;SDS011;34173;47.446;18.912;2023-05-07T02:18:55;10.20;;;7.00;;
48367;SDS011;34173;47.446;18.912;2023-05-07T02:21:24;10.35;;;6.93;;
48367;SDS011;34173;47.446;18.912;2023-05-07T02:23:52;9.80;;;6.60;;
48367;SDS011;34173;47.446;18.912;2023-05-07T02:26:19;9.10;;;6.50;;
48367;SDS011;34173;47.446;18.912;2023-05-07T02:28:48;8.90;;;6.60;;
48367;SDS011;34173;47.446;18.912;2023-05-07T02:31:18;10.05;;;6.62;;
48367;SDS011;34173;47.446;18.912;2023-05-07T02:33:45;8.55;;;6.35;;
48367;SDS011;34173;47.446;18.912;2023-05-07T02:36:13;9.45;;;7.12;;
48367;SDS011;34173;47.446;18.912;2023-05-07T02:38:41;11.63;;;7.18;;
48367;SDS011;34173;47.446;18.912;2023-05-07T02:41:09;10.23;;;7.32;;
48367;SDS011;34173;47.446;18.912;2023-05-07T02:43:37;10.38;;;8.15;;
48367;SDS011;34173;47.446;18.912;2023-05-07T02:46:05;10.55;;;8.23;;
48367;SDS011;34173;47.446;18.912;2023-05-07T02:48:34;12.10;;;8.50;;
48367;SDS011;34173;47.446;18.912;2023-05-07T02:51:02;10.77;;;8.13;;
48367;SDS011;34173;47.446;18.912;2023-05-07T02:53:30;9.85;;;7.97;;
48367;SDS011;34173;47.446;18.912;2023-05-07T02:55:59;11.67;;;7.90;;
48367;SDS011;34173;47.446;18.912;2023-05-07T02:58:27;10.13;;;7.90;;
48367;SDS011;34173;47.446;18.912;2023-05-07T03:00:56;10.00;;;7.33;;
48367;SDS011;34173;47.446;18.912;2023-05-07T03:03:25;10.00;;;7.73;;
48367;SDS011;34173;47.446;18.912;2023-05-07T03:05:53;10.20;;;8.27;;
48367;SDS011;34173;47.446;18.912;2023-05-07T03:08:20;11.43;;;7.95;;
48367;SDS011;34173;47.446;18.912;2023-05-07T03:10:48;11.73;;;7.85;;
48367;SDS011;34173;47.446;18.912;2023-05-07T03:13:15;10.07;;;7.80;;
48367;SDS011;34173;47.446;18.912;2023-05-07T03:15:43;11.23;;;7.82;;
48367;SDS011;34173;47.446;18.912;2023-05-07T03:18:11;12.32;;;8.23;;
48367;SDS011;34173;47.446;18.912;2023-05-07T03:20:38;10.48;;;7.97;;
48367;SDS011;34173;47.446;18.912;2023-05-07T03:23:07;13.13;;;8.23;;
48367;SDS011;34173;47.446;18.912;2023-05-07T03:25:35;12.82;;;9.10;;
48367;SDS011;34173;47.446;18.912;2023-05-07T03:28:03;12.70;;;9.02;;
48367;SDS011;34173;47.446;18.912;2023-05-07T03:30:31;12.00;;;8.50;;
48367;SDS011;34173;47.446;18.912;2023-05-07T03:32:59;11.57;;;8.60;;
48367;SDS011;34173;47.446;18.912;2023-05-07T03:35:27;10.65;;;7.75;;
48367;SDS011;34173;47.446;18.912;2023-05-07T03:37:55;11.45;;;8.18;;
48367;SDS011;34173;47.446;18.912;2023-05-07T03:40:23;8.57;;;6.62;;
48367;SDS011;34173;47.446;18.912;2023-05-07T03:42:50;8.45;;;6.50;;
48367;SDS011;34173;47.446;18.912;2023-05-07T03:45:18;8.75;;;6.10;;
48367;SDS011;34173;47.446;18.912;2023-05-07T03:47:47;9.73;;;5.95;;
48367;SDS011;34173;47.446;18.912;2023-05-07T03:50:16;8.70;;;5.93;;
48367;SDS011;34173;47.446;18.912;2023-05-07T03:52:44;9.02;;;6.07;;
48367;SDS011;34173;47.446;18.912;2023-05-07T03:55:12;9.63;;;7.12;;
48367;SDS011;34173;47.446;18.912;2023-05-07T03:57:41;14.82;;;10.20;;
48367;SDS011;34173;47.446;18.912;2023-05-07T04:00:09;15.40;;;11.15;;
48367;SDS011;34173;47.446;18.912;2023-05-07T04:02:46;20.92;;;13.95;;
48367;SDS011;34173;47.446;18.912;2023-05-07T04:05:14;20.20;;;15.23;;
48367;SDS011;34173;47.446;18.912;2023-05-07T04:07:43;22.52;;;14.70;;
48367;SDS011;34173;47.446;18.912;2023-05-07T04:10:12;19.00;;;14.80;;
48367;SDS011;34173;47.446;18.912;2023-05-07T04:12:41;17.90;;;13.30;;
48367;SDS011;34173;47.446;18.912;2023-05-07T04:15:09;17.65;;;13.88;;
48367;SDS011;34173;47.446;18.912;2023-05-07T04:17:37;17.80;;;13.85;;
48367;SDS011;34173;47.446;18.912;2023-05-07T04:20:05;16.58;;;12.82;;
48367;SDS011;34173;47.446;18.912;2023-05-07T04:22:34;17.35;;;12.18;;
48367;SDS011;34173;47.446;18.912;2023-05-07T04:25:03;12.80;;;10.15;;
48367;SDS011;34173;47.446;18.912;2023-05-07T04:27:33;13.52;;;9.43;;
48367;SDS011;34173;47.446;18.912;2023-05-07T04:30:01;12.27;;;9.00;;
48367;SDS011;34173;47.446;18.912;2023-05-07T04:32:32;11.20;;;9.10;;
48367;SDS011;34173;47.446;18.912;2023-05-07T04:34:59;12.60;;;9.13;;
48367;SDS011;34173;47.446;18.912;2023-05-07T04:37:27;12.73;;;9.00;;
48367;SDS011;34173;47.446;18.912;2023-05-07T04:39:55;12.70;;;9.07;;
48367;SDS011;34173;47.446;18.912;2023-05-07T04:42:23;12.27;;;9.05;;
48367;SDS011;34173;47.446;18.912;2023-05-07T04:44:52;13.13;;;9.30;;
48367;SDS011;34173;47.446;18.912;2023-05-07T04:47:22;12.27;;;9.05;;
48367;SDS011;34173;47.446;18.912;2023-05-07T04:49:50;11.67;;;9.07;;
48367;SDS011;34173;47.446;18.912;2023-05-07T04:52:17;13.53;;;9.23;;
48367;SDS011;34173;47.446;18.912;2023-05-07T04:54:45;12.98;;;9.73;;
48367;SDS011;34173;47.446;18.912;2023-05-07T04:57:13;12.75;;;9.38;;
48367;SDS011;34173;47.446;18.912;2023-05-07T04:59:41;12.80;;;9.07;;
48367;SDS011;34173;47.446;18.912;2023-05-07T05:02:10;13.75;;;9.23;;
48367;SDS011;34173;47.446;18.912;2023-05-07T05:04:38;10.40;;;8.30;;
48367;SDS011;34173;47.446;18.912;2023-05-07T05:07:06;10.43;;;8.03;;
48367;SDS011;34173;47.446;18.912;2023-05-07T05:09:33;11.32;;;8.27;;
48367;SDS011;34173;47.446;18.912;2023-05-07T05:12:01;11.25;;;7.72;;
48367;SDS011;34173;47.446;18.912;2023-05-07T05:14:29;10.82;;;7.90;;
48367;SDS011;34173;47.446;18.912;2023-05-07T05:16:57;10.50;;;6.90;;
48367;SDS011;34173;47.446;18.912;2023-05-07T05:19:24;7.93;;;6.10;;
48367;SDS011;34173;47.446;18.912;2023-05-07T05:21:52;9.30;;;6.00;;
48367;SDS011;34173;47.446;18.912;2023-05-07T05:24:19;7.37;;;5.30;;
48367;SDS011;34173;47.446;18.912;2023-05-07T05:26:47;9.10;;;6.32;;
48367;SDS011;34173;47.446;18.912;2023-05-07T05:29:14;9.43;;;6.80;;
48367;SDS011;34173;47.446;18.912;2023-05-07T05:31:42;9.18;;;7.07;;
48367;SDS011;34173;47.446;18.912;2023-05-07T05:34:10;11.85;;;8.90;;
48367;SDS011;34173;47.446;18.912;2023-05-07T05:36:40;10.43;;;8.60;;
48367;SDS011;34173;47.446;18.912;2023-05-07T05:39:07;11.35;;;9.18;;
48367;SDS011;34173;47.446;18.912;2023-05-07T05:41:35;12.20;;;8.73;;
48367;SDS011;34173;47.446;18.912;2023-05-07T05:44:03;11.20;;;8.50;;
48367;SDS011;34173;47.446;18.912;2023-05-07T05:46:31;9.97;;;7.70;;
48367;SDS011;34173;47.446;18.912;2023-05-07T05:49:02;9.93;;;7.97;;
48367;SDS011;34173;47.446;18.912;2023-05-07T05:51:31;8.93;;;6.82;;
48367;SDS011;34173;47.446;18.912;2023-05-07T05:53:59;9.23;;;6.40;;
48367;SDS011;34173;47.446;18.912;2023-05-07T05:56:26;13.40;;;7.20;;
48367;SDS011;34173;47.446;18.912;2023-05-07T05:58:54;10.38;;;7.40;;
48367;SDS011;34173;47.446;18.912;2023-05-07T06:01:22;10.33;;;6.80;;
48367;SDS011;34173;47.446;18.912;2023-05-07T06:03:50;9.40;;;6.60;;
48367;SDS011;34173;47.446;18.912;2023-05-07T06:06:17;9.55;;;7.57;;
48367;SDS011;34173;47.446;18.912;2023-05-07T06:08:45;10.25;;;7.78;;
48367;SDS011;34173;47.446;18.912;2023-05-07T06:11:14;11.05;;;8.48;;
48367;SDS011;34173;47.446;18.912;2023-05-07T06:13:43;11.12;;;8.35;;
48367;SDS011;34173;47.446;18.912;2023-05-07T06:16:11;11.25;;;8.10;;
48367;SDS011;34173;47.446;18.912;2023-05-07T06:18:39;10.00;;;7.47;;
48367;SDS011;34173;47.446;18.912;2023-05-07T06:21:06;10.45;;;7.68;;
48367;SDS011;34173;47.446;18.912;2023-05-07T06:23:34;9.90;;;7.37;;
48367;SDS011;34173;47.446;18.912;2023-05-07T06:26:03;6.10;;;4.40;;
48367;SDS011;34173;47.446;18.912;2023-05-07T06:28:31;6.45;;;4.40;;
48367;SDS011;34173;47.446;18.912;2023-05-07T06:33:41;7.55;;;4.97;;
48367;SDS011;34173;47.446;18.912;2023-05-07T06:36:10;6.82;;;4.32;;
48367;SDS011;34173;47.446;18.912;2023-05-07T06:38:38;6.25;;;4.32;;
48367;SDS011;34173;47.446;18.912;2023-05-07T06:41:06;6.57;;;4.37;;
48367;SDS011;34173;47.446;18.912;2023-05-07T06:43:34;6.35;;;4.30;;
48367;SDS011;34173;47.446;18.912;2023-05-07T06:46:06;7.80;;;4.57;;
48367;SDS011;34173;47.446;18.912;2023-05-07T06:48:34;6.87;;;4.95;;
48367;SDS011;34173;47.446;18.912;2023-05-07T06:51:03;6.97;;;5.10;;
48367;SDS011;34173;47.446;18.912;2023-05-07T06:53:31;7.28;;;4.70;;
48367;SDS011;34173;47.446;18.912;2023-05-07T06:55:59;7.27;;;4.80;;
48367;SDS011;34173;47.446;18.912;2023-05-07T06:58:26;6.95;;;4.62;;
48367;SDS011;34173;47.446;18.912;2023-05-07T07:00:54;6.50;;;4.50;;
48367;SDS011;34173;47.446;18.912;2023-05-07T07:03:22;7.70;;;4.78;;
48367;SDS011;34173;47.446;18.912;2023-05-07T07:05:53;6.93;;;4.87;;
48367;SDS011;34173;47.446;18.912;2023-05-07T07:08:21;7.53;;;4.37;;
48367;SDS011;34173;47.446;18.912;2023-05-07T07:10:49;5.82;;;4.32;;
48367;SDS011;34173;47.446;18.912;2023-05-07T07:13:17;6.18;;;4.40;;
48367;SDS011;34173;47.446;18.912;2023-05-07T07:15:45;6.00;;;4.10;;
48367;SDS011;34173;47.446;18.912;2023-05-07T07:18:12;6.97;;;4.70;;
48367;SDS011;34173;47.446;18.912;2023-05-07T07:20:41;6.90;;;5.20;;
48367;SDS011;34173;47.446;18.912;2023-05-07T07:23:09;6.47;;;5.10;;
48367;SDS011;34173;47.446;18.912;2023-05-07T07:25:36;7.40;;;4.60;;
48367;SDS011;34173;47.446;18.912;2023-05-07T07:28:05;7.82;;;4.70;;
48367;SDS011;34173;47.446;18.912;2023-05-07T07:30:32;8.40;;;6.75;;
48367;SDS011;34173;47.446;18.912;2023-05-07T07:33:00;11.43;;;8.88;;
48367;SDS011;34173;47.446;18.912;2023-05-07T07:35:33;13.05;;;9.05;;
48367;SDS011;34173;47.446;18.912;2023-05-07T07:38:02;11.23;;;8.68;;
48367;SDS011;34173;47.446;18.912;2023-05-07T07:40:29;11.35;;;8.68;;
48367;SDS011;34173;47.446;18.912;2023-05-07T07:42:57;11.05;;;8.05;;
48367;SDS011;34173;47.446;18.912;2023-05-07T07:45:25;11.60;;;8.93;;
48367;SDS011;34173;47.446;18.912;2023-05-07T07:47:52;11.95;;;9.20;;
48367;SDS011;34173;47.446;18.912;2023-05-07T07:50:20;12.68;;;10.10;;
48367;SDS011;34173;47.446;18.912;2023-05-07T07:53:06;13.52;;;10.77;;
48367;SDS011;34173;47.446;18.912;2023-05-07T07:55:37;14.32;;;10.77;;
48367;SDS011;34173;47.446;18.912;2023-05-07T07:58:07;14.68;;;11.80;;
48367;SDS011;34173;47.446;18.912;2023-05-07T08:00:34;16.60;;;12.55;;
48367;SDS011;34173;47.446;18.912;2023-05-07T08:03:02;17.42;;;13.30;;
48367;SDS011;34173;47.446;18.912;2023-05-07T08:05:31;15.90;;;12.77;;
48367;SDS011;34173;47.446;18.912;2023-05-07T08:07:58;15.35;;;12.65;;
48367;SDS011;34173;47.446;18.912;2023-05-07T08:10:27;16.23;;;12.70;;
48367;SDS011;34173;47.446;18.912;2023-05-07T08:12:55;15.32;;;11.95;;
48367;SDS011;34173;47.446;18.912;2023-05-07T08:15:23;15.13;;;11.77;;
48367;SDS011;34173;47.446;18.912;2023-05-07T08:17:51;14.82;;;11.65;;
48367;SDS011;34173;47.446;18.912;2023-05-07T08:20:18;14.50;;;11.93;;
48367;SDS011;34173;47.446;18.912;2023-05-07T08:22:46;13.90;;;11.50;;
48367;SDS011;34173;47.446;18.912;2023-05-07T08:25:14;13.30;;;10.30;;
48367;SDS011;34173;47.446;18.912;2023-05-07T08:27:42;13.90;;;10.95;;
48367;SDS011;34173;47.446;18.912;2023-05-07T08:30:09;13.40;;;10.63;;
48367;SDS011;34173;47.446;18.912;2023-05-07T08:32:38;13.80;;;10.52;;
48367;SDS011;34173;47.446;18.912;2023-05-07T08:35:06;13.90;;;9.95;;
48367;SDS011;34173;47.446;18.912;2023-05-07T08:37:34;12.90;;;10.60;;
48367;SDS011;34173;47.446;18.912;2023-05-07T08:40:02;13.38;;;10.02;;
48367;SDS011;34173;47.446;18.912;2023-05-07T08:42:33;12.82;;;9.63;;
48367;SDS011;34173;47.446;18.912;2023-05-07T08:45:03;12.07;;;9.90;;
48367;SDS011;34173;47.446;18.912;2023-05-07T08:47:39;12.90;;;9.30;;
48367;SDS011;34173;47.446;18.912;2023-05-07T08:50:10;11.70;;;9.67;;
48367;SDS011;34173;47.446;18.912;2023-05-07T08:52:40;11.10;;;9.40;;
48367;SDS011;34173;47.446;18.912;2023-05-07T08:55:09;11.52;;;9.10;;
48367;SDS011;34173;47.446;18.912;2023-05-07T08:57:38;11.48;;;8.50;;
48367;SDS011;34173;47.446;18.912;2023-05-07T09:00:07;9.85;;;7.80;;
48367;SDS011;34173;47.446;18.912;2023-05-07T09:02:36;11.88;;;8.90;;
48367;SDS011;34173;47.446;18.912;2023-05-07T09:05:05;12.13;;;8.98;;
48367;SDS011;34173;47.446;18.912;2023-05-07T09:07:33;9.55;;;7.65;;
48367;SDS011;34173;47.446;18.912;2023-05-07T09:10:02;9.70;;;7.70;;
48367;SDS011;34173;47.446;18.912;2023-05-07T09:12:32;9.40;;;7.30;;
48367;SDS011;34173;47.446;18.912;2023-05-07T09:15:02;11.25;;;7.82;;
48367;SDS011;34173;47.446;18.912;2023-05-07T09:17:31;9.20;;;6.80;;
48367;SDS011;34173;47.446;18.912;2023-05-07T09:20:03;9.52;;;7.22;;
48367;SDS011;34173;47.446;18.912;2023-05-07T09:22:37;7.93;;;6.03;;
48367;SDS011;34173;47.446;18.912;2023-05-07T09:25:06;8.30;;;6.50;;
48367;SDS011;34173;47.446;18.912;2023-05-07T09:27:35;6.97;;;4.97;;
48367;SDS011;34173;47.446;18.912;2023-05-07T09:30:06;7.47;;;5.12;;
48367;SDS011;34173;47.446;18.912;2023-05-07T09:32:35;7.45;;;4.57;;
48367;SDS011;34173;47.446;18.912;2023-05-07T09:35:05;7.40;;;5.10;;
48367;SDS011;34173;47.446;18.912;2023-05-07T09:37:33;6.97;;;5.30;;
48367;SDS011;34173;47.446;18.912;2023-05-07T09:40:01;9.07;;;6.07;;
48367;SDS011;34173;47.446;18.912;2023-05-07T09:42:29;7.30;;;5.03;;
48367;SDS011;34173;47.446;18.912;2023-05-07T09:44:58;7.20;;;5.05;;
48367;SDS011;34173;47.446;18.912;2023-05-07T09:47:27;7.22;;;5.15;;
48367;SDS011;34173;47.446;18.912;2023-05-07T09:49:58;7.90;;;5.75;;
48367;SDS011;34173;47.446;18.912;2023-05-07T09:52:28;8.27;;;5.97;;
48367;SDS011;34173;47.446;18.912;2023-05-07T09:55:01;8.00;;;6.03;;
48367;SDS011;34173;47.446;18.912;2023-05-07T09:57:29;10.82;;;6.28;;
48367;SDS011;34173;47.446;18.912;2023-05-07T09:59:58;8.25;;;6.12;;
48367;SDS011;34173;47.446;18.912;2023-05-07T10:02:27;7.87;;;6.30;;
48367;SDS011;34173;47.446;18.912;2023-05-07T10:04:57;11.48;;;6.75;;
48367;SDS011;34173;47.446;18.912;2023-05-07T10:07:28;10.70;;;7.28;;
48367;SDS011;34173;47.446;18.912;2023-05-07T10:09:56;9.43;;;7.60;;
48367;SDS011;34173;47.446;18.912;2023-05-07T10:12:26;9.73;;;7.78;;
48367;SDS011;34173;47.446;18.912;2023-05-07T10:14:54;9.32;;;7.28;;
48367;SDS011;34173;47.446;18.912;2023-05-07T10:17:22;10.13;;;7.37;;
48367;SDS011;34173;47.446;18.912;2023-05-07T10:19:50;9.75;;;7.05;;
48367;SDS011;34173;47.446;18.912;2023-05-07T10:22:20;10.32;;;7.03;;
48367;SDS011;34173;47.446;18.912;2023-05-07T10:24:49;11.32;;;7.75;;
48367;SDS011;34173;47.446;18.912;2023-05-07T10:27:20;10.35;;;7.30;;
48367;SDS011;34173;47.446;18.912;2023-05-07T10:32:33;10.75;;;7.70;;
48367;SDS011;34173;47.446;18.912;2023-05-07T10:35:09;9.80;;;7.15;;
48367;SDS011;34173;47.446;18.912;2023-05-07T10:37:41;8.38;;;6.68;;
48367;SDS011;34173;47.446;18.912;2023-05-07T10:40:09;7.80;;;6.18;;
48367;SDS011;34173;47.446;18.912;2023-05-07T10:42:39;8.35;;;5.60;;
48367;SDS011;34173;47.446;18.912;2023-05-07T10:45:23;6.37;;;4.97;;
48367;SDS011;34173;47.446;18.912;2023-05-07T10:53:46;8.10;;;5.95;;
48367;SDS011;34173;47.446;18.912;2023-05-07T10:58:49;8.60;;;5.72;;
48367;SDS011;34173;47.446;18.912;2023-05-07T11:01:17;6.85;;;4.85;;
48367;SDS011;34173;47.446;18.912;2023-05-07T11:04:38;6.87;;;3.78;;
48367;SDS011;34173;47.446;18.912;2023-05-07T11:15:03;4.90;;;2.83;;
48367;SDS011;34173;47.446;18.912;2023-05-07T11:17:55;4.10;;;2.60;;
48367;SDS011;34173;47.446;18.912;2023-05-07T11:23:58;4.80;;;3.08;;
48367;SDS011;34173;47.446;18.912;2023-05-07T11:26:05;5.45;;;3.05;;
48367;SDS011;34173;47.446;18.912;2023-05-07T11:28:37;5.00;;;2.75;;
48367;SDS011;34173;47.446;18.912;2023-05-07T11:31:05;6.83;;;2.80;;
48367;SDS011;34173;47.446;18.912;2023-05-07T11:33:33;4.43;;;2.90;;
48367;SDS011;34173;47.446;18.912;2023-05-07T11:36:02;4.80;;;3.10;;
48367;SDS011;34173;47.446;18.912;2023-05-07T11:38:34;5.68;;;3.03;;
48367;SDS011;34173;47.446;18.912;2023-05-07T11:41:02;4.78;;;2.90;;
48367;SDS011;34173;47.446;18.912;2023-05-07T11:43:32;6.53;;;3.30;;
48367;SDS011;34173;47.446;18.912;2023-05-07T11:46:07;4.93;;;3.25;;
48367;SDS011;34173;47.446;18.912;2023-05-07T11:48:38;5.63;;;3.00;;
48367;SDS011;34173;47.446;18.912;2023-05-07T11:51:06;6.10;;;3.47;;
48367;SDS011;34173;47.446;18.912;2023-05-07T11:53:36;5.13;;;2.93;;
48367;SDS011;34173;47.446;18.912;2023-05-07T11:56:06;5.20;;;3.00;;
48367;SDS011;34173;47.446;18.912;2023-05-07T11:58:34;5.15;;;3.00;;
48367;SDS011;34173;47.446;18.912;2023-05-07T12:01:02;4.93;;;2.80;;
48367;SDS011;34173;47.446;18.912;2023-05-07T12:03:30;5.50;;;3.30;;
48367;SDS011;34173;47.446;18.912;2023-05-07T12:06:02;5.60;;;3.30;;
48367;SDS011;34173;47.446;18.912;2023-05-07T12:08:30;6.10;;;3.43;;
48367;SDS011;34173;47.446;18.912;2023-05-07T12:10:57;5.20;;;2.95;;
48367;SDS011;34173;47.446;18.912;2023-05-07T12:13:25;4.28;;;2.55;;
48367;SDS011;34173;47.446;18.912;2023-05-07T12:15:53;4.18;;;2.90;;
48367;SDS011;34173;47.446;18.912;2023-05-07T12:18:22;4.82;;;2.87;;
48367;SDS011;34173;47.446;18.912;2023-05-07T12:20:50;4.37;;;3.00;;
48367;SDS011;34173;47.446;18.912;2023-05-07T12:23:18;5.00;;;3.28;;
48367;SDS011;34173;47.446;18.912;2023-05-07T12:25:47;5.60;;;2.90;;
48367;SDS011;34173;47.446;18.912;2023-05-07T12:28:17;4.90;;;2.83;;
48367;SDS011;34173;47.446;18.912;2023-05-07T12:30:47;5.43;;;3.10;;
48367;SDS011;34173;47.446;18.912;2023-05-07T12:33:18;5.05;;;3.45;;
48367;SDS011;34173;47.446;18.912;2023-05-07T12:35:50;5.95;;;3.35;;
48367;SDS011;34173;47.446;18.912;2023-05-07T12:38:17;5.00;;;2.95;;
48367;SDS011;34173;47.446;18.912;2023-05-07T12:40:46;5.07;;;3.13;;
48367;SDS011;34173;47.446;18.912;2023-05-07T12:46:08;4.57;;;3.20;;
48367;SDS011;34173;47.446;18.912;2023-05-07T12:48:37;5.43;;;3.00;;
48367;SDS011;34173;47.446;18.912;2023-05-07T12:51:06;4.85;;;3.00;;
48367;SDS011;34173;47.446;18.912;2023-05-07T12:53:39;4.22;;;2.60;;
48367;SDS011;34173;47.446;18.912;2023-05-07T12:56:07;5.70;;;2.97;;
48367;SDS011;34173;47.446;18.912;2023-05-07T12:58:35;5.75;;;3.30;;
48367;SDS011;34173;47.446;18.912;2023-05-07T13:01:06;5.45;;;3.03;;
48367;SDS011;34173;47.446;18.912;2023-05-07T13:03:35;5.80;;;3.17;;
48367;SDS011;34173;47.446;18.912;2023-05-07T13:06:05;3.83;;;2.62;;
48367;SDS011;34173;47.446;18.912;2023-05-07T13:08:39;4.95;;;2.37;;
48367;SDS011;34173;47.446;18.912;2023-05-07T13:11:07;4.90;;;2.80;;
48367;SDS011;34173;47.446;18.912;2023-05-07T13:13:38;5.00;;;2.60;;
48367;SDS011;34173;47.446;18.912;2023-05-07T13:16:07;5.35;;;2.40;;
48367;SDS011;34173;47.446;18.912;2023-05-07T13:18:39;6.22;;;3.17;;
48367;SDS011;34173;47.446;18.912;2023-05-07T13:21:07;5.45;;;3.00;;
48367;SDS011;34173;47.446;18.912;2023-05-07T13:23:35;9.60;;;3.53;;
48367;SDS011;34173;47.446;18.912;2023-05-07T13:26:03;5.30;;;3.20;;
48367;SDS011;34173;47.446;18.912;2023-05-07T13:28:50;5.75;;;3.33;;
48367;SDS011;34173;47.446;18.912;2023-05-07T13:31:18;4.87;;;3.00;;
48367;SDS011;34173;47.446;18.912;2023-05-07T13:33:48;4.55;;;3.00;;
48367;SDS011;34173;47.446;18.912;2023-05-07T13:36:15;4.25;;;2.72;;
48367;SDS011;34173;47.446;18.912;2023-05-07T13:38:43;5.43;;;3.03;;
48367;SDS011;34173;47.446;18.912;2023-05-07T13:41:11;5.68;;;3.20;;
48367;SDS011;34173;47.446;18.912;2023-05-07T13:43:39;5.50;;;3.87;;
48367;SDS011;34173;47.446;18.912;2023-05-07T13:46:07;5.50;;;3.72;;
48367;SDS011;34173;47.446;18.912;2023-05-07T13:48:35;6.32;;;3.72;;
48367;SDS011;34173;47.446;18.912;2023-05-07T13:51:03;6.00;;;3.47;;
48367;SDS011;34173;47.446;18.912;2023-05-07T13:53:30;6.22;;;3.80;;
48367;SDS011;34173;47.446;18.912;2023-05-07T13:55:59;6.45;;;4.00;;
48367;SDS011;34173;47.446;18.912;2023-05-07T13:58:27;5.47;;;3.60;;
48367;SDS011;34173;47.446;18.912;2023-05-07T14:00:55;5.75;;;3.72;;
48367;SDS011;34173;47.446;18.912;2023-05-07T14:03:22;5.82;;;3.53;;
48367;SDS011;34173;47.446;18.912;2023-05-07T14:05:51;5.68;;;3.40;;
48367;SDS011;34173;47.446;18.912;2023-05-07T14:08:18;5.30;;;3.40;;
48367;SDS011;34173;47.446;18.912;2023-05-07T14:10:47;5.15;;;3.47;;
48367;SDS011;34173;47.446;18.912;2023-05-07T14:13:14;6.17;;;3.30;;
48367;SDS011;34173;47.446;18.912;2023-05-07T14:15:42;6.23;;;3.53;;
48367;SDS011;34173;47.446;18.912;2023-05-07T14:18:13;5.80;;;3.42;;
48367;SDS011;34173;47.446;18.912;2023-05-07T14:20:41;6.43;;;3.37;;
48367;SDS011;34173;47.446;18.912;2023-05-07T14:23:10;6.20;;;3.30;;
48367;SDS011;34173;47.446;18.912;2023-05-07T14:25:38;4.93;;;3.10;;
48367;SDS011;34173;47.446;18.912;2023-05-07T14:28:06;7.07;;;3.35;;
48367;SDS011;34173;47.446;18.912;2023-05-07T14:30:35;5.50;;;3.73;;
48367;SDS011;34173;47.446;18.912;2023-05-07T14:33:03;6.68;;;3.58;;
48367;SDS011;34173;47.446;18.912;2023-05-07T14:35:30;6.93;;;4.10;;
48367;SDS011;34173;47.446;18.912;2023-05-07T14:37:57;5.50;;;3.73;;
48367;SDS011;34173;47.446;18.912;2023-05-07T14:40:25;6.70;;;4.00;;
48367;SDS011;34173;47.446;18.912;2023-05-07T14:42:53;6.53;;;4.03;;
48367;SDS011;34173;47.446;18.912;2023-05-07T14:45:20;9.20;;;4.22;;
48367;SDS011;34173;47.446;18.912;2023-05-07T14:47:48;5.97;;;3.40;;
48367;SDS011;34173;47.446;18.912;2023-05-07T14:50:16;6.87;;;3.90;;
48367;SDS011;34173;47.446;18.912;2023-05-07T14:52:43;7.55;;;3.90;;
48367;SDS011;34173;47.446;18.912;2023-05-07T14:55:11;7.62;;;4.10;;
48367;SDS011;34173;47.446;18.912;2023-05-07T14:57:40;7.85;;;4.70;;
48367;SDS011;34173;47.446;18.912;2023-05-07T15:00:07;8.82;;;4.50;;
48367;SDS011;34173;47.446;18.912;2023-05-07T15:02:36;8.75;;;4.60;;